Time;durP1;ratioP1;P1;durP2;ratioP2;P2;SDS_P1;SDS_P2;PMS_P1;PMS_P2;Temp;Humidity;BMP_temperature;BMP_pressure;BME280_temperature;BME280_humidity;BME280_pressure;Samples;Min_cycle;Max_cycle;Signal;HPM_P1;HPM_P2
2022/02/28 00:01:25;;;;;;;3.30;1.05;;;18.30;38.50;;;;;;5037035;28;20218;-83
2022/02/28 00:03:54;;;;;;;2.65;1.00;;;18.30;38.70;;;;;;5020756;28;20173;-84
2022/02/28 00:06:21;;;;;;;2.75;1.15;;;18.30;38.70;;;;;;5036633;28;20182;-84
2022/02/28 00:08:48;;;;;;;1.48;1.00;;;18.30;38.70;;;;;;5020014;28;20260;-84
2022/02/28 00:11:15;;;;;;;1.73;0.90;;;18.30;38.80;;;;;;5003577;28;20185;-84
2022/02/28 00:13:42;;;;;;;3.33;1.10;;;18.20;38.80;;;;;;5020123;28;20731;-83
2022/02/28 00:16:10;;;;;;;1.60;1.10;;;18.20;38.80;;;;;;5036201;28;20529;-84
2022/02/28 00:18:36;;;;;;;1.20;0.90;;;18.20;39.10;;;;;;5003510;28;20174;-84
2022/02/28 00:21:04;;;;;;;2.90;1.10;;;18.20;39.00;;;;;;5019567;28;20696;-84
2022/02/28 00:23:30;;;;;;;3.50;1.05;;;18.20;39.00;;;;;;5036133;28;20178;-83
2022/02/28 00:25:59;;;;;;;2.13;1.10;;;18.20;39.10;;;;;;5002995;28;20174;-83
2022/02/28 00:28:27;;;;;;;1.55;1.10;;;18.20;39.20;;;;;;5019825;28;20192;-84
2022/02/28 00:30:52;;;;;;;1.42;0.90;;;18.20;38.90;;;;;;5005330;28;20616;-83
2022/02/28 00:33:20;;;;;;;3.10;1.38;;;18.20;39.10;;;;;;5040392;28;20257;-84
2022/02/28 00:35:48;;;;;;;1.70;1.00;;;18.30;39.10;;;;;;5022931;28;20173;-83
2022/02/28 00:38:14;;;;;;;1.65;1.08;;;18.20;38.90;;;;;;5039579;28;20188;-84
2022/02/28 00:40:41;;;;;;;3.30;1.20;;;18.20;38.90;;;;;;5056591;28;20617;-84
2022/02/28 00:43:09;;;;;;;1.52;1.10;;;18.20;39.10;;;;;;5022606;28;20223;-84
2022/02/28 00:45:37;;;;;;;1.27;1.10;;;18.20;39.20;;;;;;5023146;28;20183;-83
2022/02/28 00:48:04;;;;;;;2.78;1.35;;;18.20;39.20;;;;;;5023069;28;20177;-84
2022/02/28 00:50:32;;;;;;;1.20;0.90;;;18.10;39.50;;;;;;5022605;28;20280;-84
2022/02/28 00:52:59;;;;;;;1.35;0.90;;;18.10;39.40;;;;;;5006361;28;20177;-83
2022/02/28 00:55:26;;;;;;;3.65;1.00;;;18.10;40.10;;;;;;5039790;28;20188;-84
2022/02/28 00:57:54;;;;;;;1.67;1.00;;;18.10;39.40;;;;;;5040246;28;20219;-84
2022/02/28 01:00:21;;;;;;;1.40;1.20;;;18.20;39.60;;;;;;5024141;28;20272;-83
2022/02/28 01:02:48;;;;;;;1.58;1.00;;;18.00;39.60;;;;;;5026771;28;20192;-83
2022/02/28 01:05:16;;;;;;;2.15;1.38;;;18.10;39.50;;;;;;5027392;28;20188;-83
2022/02/28 01:07:44;;;;;;;2.20;1.10;;;18.10;39.60;;;;;;5026935;28;20185;-83
2022/02/28 01:10:12;;;;;;;1.95;1.00;;;18.10;39.60;;;;;;5043453;28;20268;-83
2022/02/28 01:12:39;;;;;;;2.30;1.33;;;18.10;39.70;;;;;;5023310;28;20757;-83
2022/02/28 01:15:07;;;;;;;1.02;0.90;;;18.10;39.80;;;;;;5038719;28;20288;-84
2022/02/28 01:17:34;;;;;;;2.90;1.20;;;18.10;39.80;;;;;;5038702;28;20204;-84
2022/02/28 01:20:04;;;;;;;1.90;1.10;;;18.10;39.80;;;;;;5038418;28;20249;-84
2022/02/28 01:22:31;;;;;;;2.60;1.15;;;18.10;39.70;;;;;;5005810;28;20296;-83
2022/02/28 01:24:58;;;;;;;2.05;1.05;;;18.10;39.70;;;;;;5005526;28;20272;-83
2022/02/28 01:27:28;;;;;;;2.10;1.10;;;18.10;39.60;;;;;;5022135;28;20181;-84
2022/02/28 01:29:54;;;;;;;2.30;1.33;;;18.00;39.70;;;;;;5022044;28;20185;-84
2022/02/28 01:32:21;;;;;;;2.97;1.08;;;18.10;39.90;;;;;;5018115;28;20316;-83
2022/02/28 01:34:48;;;;;;;1.60;1.00;;;18.00;39.90;;;;;;5002212;28;20640;-84
2022/02/28 01:37:16;;;;;;;3.15;1.10;;;18.00;40.00;;;;;;5034928;28;20186;-84
2022/02/28 01:39:45;;;;;;;2.38;1.20;;;18.00;40.20;;;;;;5018535;28;20244;-83
2022/02/28 01:42:12;;;;;;;2.17;0.80;;;18.00;40.40;;;;;;5003066;28;20244;-84
2022/02/28 01:44:39;;;;;;;2.17;0.90;;;18.00;40.30;;;;;;5053284;28;20161;-83
2022/02/28 01:47:08;;;;;;;1.25;0.93;;;18.00;40.30;;;;;;5018254;28;20182;-83
2022/02/28 01:49:34;;;;;;;1.60;1.00;;;18.00;41.10;;;;;;5018810;28;20636;-84
2022/02/28 01:52:01;;;;;;;1.88;1.05;;;18.00;40.40;;;;;;5034448;28;20174;-84
2022/02/28 01:54:28;;;;;;;1.33;1.20;;;18.00;40.40;;;;;;5001515;28;20625;-84
2022/02/28 01:56:55;;;;;;;2.72;0.98;;;18.00;40.30;;;;;;5001742;28;20204;-83
2022/02/28 01:59:22;;;;;;;1.48;1.00;;;17.90;40.30;;;;;;5018356;28;20182;-84
2022/02/28 02:01:50;;;;;;;0.90;0.80;;;18.00;40.40;;;;;;5018506;28;20221;-83
2022/02/28 02:04:18;;;;;;;1.88;1.17;;;17.90;40.50;;;;;;5034528;28;20181;-83
2022/02/28 02:06:46;;;;;;;1.85;1.10;;;18.00;40.50;;;;;;5034552;28;20192;-84
2022/02/28 02:09:16;;;;;;;1.58;1.23;;;17.90;40.50;;;;;;5018227;28;20190;-83
2022/02/28 02:11:44;;;;;;;1.20;1.08;;;17.90;40.60;;;;;;5004453;28;20209;-84
2022/02/28 02:14:12;;;;;;;2.17;1.15;;;17.90;40.60;;;;;;5022278;28;20251;-82
2022/02/28 02:16:41;;;;;;;1.80;1.05;;;17.90;40.50;;;;;;5022055;28;20174;-82
2022/02/28 02:19:09;;;;;;;2.17;1.10;;;17.90;40.70;;;;;;5038597;28;20185;-82
2022/02/28 02:21:36;;;;;;;1.20;0.80;;;18.00;40.70;;;;;;5005441;28;20217;-82
2022/02/28 02:24:06;;;;;;;1.50;0.98;;;17.90;40.70;;;;;;5021959;28;20188;-82
2022/02/28 02:26:33;;;;;;;2.03;1.30;;;17.90;41.30;;;;;;5005655;28;20178;-82
2022/02/28 02:29:00;;;;;;;0.85;0.85;;;17.90;40.70;;;;;;5021975;28;20181;-82
2022/02/28 02:31:26;;;;;;;1.20;1.05;;;17.90;40.90;;;;;;5005281;28;20259;-82
2022/02/28 02:33:51;;;;;;;1.30;1.00;;;17.90;40.90;;;;;;5022816;28;20166;-82
2022/02/28 02:36:20;;;;;;;1.70;1.10;;;17.90;40.80;;;;;;5038981;28;20150;-82
2022/02/28 02:38:47;;;;;;;1.13;0.88;;;17.90;40.70;;;;;;5055819;28;20269;-82
2022/02/28 02:41:14;;;;;;;2.45;1.10;;;17.90;40.70;;;;;;5021771;28;20217;-82
2022/02/28 02:43:39;;;;;;;2.95;1.25;;;17.90;40.80;;;;;;5055428;28;20207;-82
2022/02/28 02:46:05;;;;;;;1.10;1.00;;;17.90;40.90;;;;;;5055617;28;20163;-82
2022/02/28 02:48:31;;;;;;;3.25;0.90;;;17.90;41.00;;;;;;5055603;28;20155;-82
2022/02/28 02:50:57;;;;;;;2.65;1.00;;;17.90;41.00;;;;;;5056914;28;20628;-82
2022/02/28 02:53:23;;;;;;;1.80;1.00;;;17.80;40.90;;;;;;5038806;28;20159;-82
2022/02/28 02:55:49;;;;;;;1.63;1.10;;;17.90;40.90;;;;;;5056383;28;20702;-82
2022/02/28 02:58:16;;;;;;;1.98;1.00;;;17.90;41.10;;;;;;5038480;28;20162;-82
2022/02/28 03:00:45;;;;;;;1.25;1.00;;;17.80;40.90;;;;;;5056505;28;20204;-82
2022/02/28 03:03:11;;;;;;;2.03;1.08;;;17.90;41.60;;;;;;5055102;28;20170;-82
2022/02/28 03:05:38;;;;;;;1.52;0.77;;;17.90;41.10;;;;;;5038357;28;20158;-82
2022/02/28 03:08:05;;;;;;;1.50;0.88;;;17.90;40.90;;;;;;5038913;28;20644;-82
2022/02/28 03:10:31;;;;;;;1.50;1.05;;;17.90;40.90;;;;;;5056255;28;20154;-82
2022/02/28 03:12:57;;;;;;;2.47;0.90;;;17.80;40.90;;;;;;5038133;28;20636;-83
2022/02/28 03:15:23;;;;;;;1.48;1.02;;;17.90;41.10;;;;;;5054943;28;20173;-84
2022/02/28 03:17:48;;;;;;;2.47;1.20;;;17.80;41.30;;;;;;5038072;28;20155;-83
2022/02/28 03:20:14;;;;;;;4.07;1.40;;;17.80;41.20;;;;;;5054820;28;20522;-82
2022/02/28 03:22:40;;;;;;;1.80;1.20;;;17.70;41.10;;;;;;5053839;28;20163;-82
2022/02/28 03:25:06;;;;;;;1.25;0.88;;;17.70;41.20;;;;;;5054528;28;20154;-82
2022/02/28 03:27:32;;;;;;;2.75;1.05;;;17.80;41.20;;;;;;5038079;28;20162;-82
2022/02/28 03:29:58;;;;;;;2.53;1.10;;;17.80;41.30;;;;;;5038405;28;20624;-82
2022/02/28 03:32:25;;;;;;;1.73;0.90;;;17.80;41.20;;;;;;5037896;28;20225;-82
2022/02/28 03:34:51;;;;;;;1.60;0.90;;;17.80;41.20;;;;;;5054513;28;20170;-82
2022/02/28 03:37:17;;;;;;;1.63;1.02;;;17.80;41.20;;;;;;5037775;28;20166;-82
2022/02/28 03:39:43;;;;;;;3.25;1.20;;;17.80;41.30;;;;;;5055620;28;20576;-81
2022/02/28 03:42:09;;;;;;;1.98;1.30;;;17.80;41.40;;;;;;5055421;28;20212;-82
2022/02/28 03:44:35;;;;;;;1.45;0.85;;;17.80;41.40;;;;;;5055644;28;20169;-82
2022/02/28 03:47:00;;;;;;;1.92;1.10;;;17.80;41.40;;;;;;5055499;28;20158;-82
2022/02/28 03:49:26;;;;;;;2.30;0.95;;;17.80;41.50;;;;;;5054166;28;20204;-82
2022/02/28 03:51:56;;;;;;;0.82;0.70;;;17.80;41.50;;;;;;5037587;28;20613;-82
2022/02/28 03:54:21;;;;;;;2.47;0.82;;;17.80;41.50;;;;;;5020543;28;20186;-82
2022/02/28 03:56:47;;;;;;;1.10;0.98;;;17.80;41.30;;;;;;5054023;28;20682;-81
2022/02/28 03:59:13;;;;;;;1.77;1.00;;;17.80;41.60;;;;;;5020700;28;20170;-82
2022/02/28 04:01:40;;;;;;;1.85;1.10;;;17.70;41.40;;;;;;5020986;28;20664;-82
2022/02/28 04:04:06;;;;;;;1.10;1.00;;;17.80;41.50;;;;;;5037472;28;20253;-82
2022/02/28 04:06:32;;;;;;;1.58;0.90;;;17.80;41.60;;;;;;5037236;28;20525;-82
2022/02/28 04:08:58;;;;;;;2.15;0.93;;;17.80;41.50;;;;;;5021367;28;20180;-82
2022/02/28 04:11:24;;;;;;;1.40;0.90;;;17.80;41.60;;;;;;5054984;28;20528;-82
2022/02/28 04:13:50;;;;;;;1.80;1.10;;;17.80;41.60;;;;;;5037566;28;20189;-82
2022/02/28 04:16:16;;;;;;;2.40;1.10;;;17.80;41.60;;;;;;5053852;28;20159;-82
2022/02/28 04:18:42;;;;;;;1.60;0.90;;;17.80;41.70;;;;;;5036915;28;20251;-82
2022/02/28 04:21:08;;;;;;;1.05;0.88;;;17.80;41.60;;;;;;5055009;28;20186;-82
2022/02/28 04:23:34;;;;;;;2.45;0.80;;;17.80;41.70;;;;;;5054743;28;20241;-82
2022/02/28 04:26:00;;;;;;;1.75;0.93;;;17.80;41.60;;;;;;5037012;28;20150;-82
2022/02/28 04:28:26;;;;;;;2.50;1.10;;;17.70;41.30;;;;;;5053769;28;20274;-82
2022/02/28 04:30:51;;;;;;;1.45;0.90;;;17.70;41.40;;;;;;5038538;28;20248;-82
2022/02/28 04:33:18;;;;;;;1.05;0.75;;;17.80;41.60;;;;;;5074556;28;20191;-83
2022/02/28 04:35:45;;;;;;;1.35;1.00;;;17.70;41.80;;;;;;5005945;28;20189;-82
2022/02/28 04:38:12;;;;;;;1.25;0.90;;;17.70;41.70;;;;;;5022867;28;20209;-82
2022/02/28 04:40:39;;;;;;;1.92;0.88;;;17.70;41.80;;;;;;5039401;28;20224;-82
2022/02/28 04:43:09;;;;;;;1.40;1.08;;;17.70;41.80;;;;;;5006668;28;20188;-82
2022/02/28 04:45:35;;;;;;;1.73;1.00;;;17.70;41.90;;;;;;5023124;28;20204;-82
2022/02/28 04:48:05;;;;;;;1.30;1.20;;;17.70;41.80;;;;;;5039235;28;20181;-83
2022/02/28 04:50:32;;;;;;;1.27;1.00;;;17.70;41.60;;;;;;5022766;28;20205;-82
2022/02/28 04:52:58;;;;;;;1.45;0.82;;;17.70;41.70;;;;;;5056335;28;20161;-83
2022/02/28 04:55:24;;;;;;;1.00;0.80;;;17.70;41.90;;;;;;5074156;28;20521;-82
2022/02/28 04:57:50;;;;;;;2.20;0.98;;;17.70;41.90;;;;;;5039765;28;20161;-82
2022/02/28 05:00:16;;;;;;;1.05;0.95;;;17.70;42.00;;;;;;5074432;28;20157;-82
2022/02/28 05:02:42;;;;;;;1.77;0.90;;;17.70;42.00;;;;;;5055941;28;20197;-83
2022/02/28 05:05:08;;;;;;;1.55;1.02;;;17.70;41.90;;;;;;5022784;28;20161;-83
2022/02/28 05:07:34;;;;;;;1.67;0.90;;;17.70;41.90;;;;;;5039994;28;20168;-82
2022/02/28 05:10:00;;;;;;;2.13;1.00;;;17.70;41.80;;;;;;5055869;28;20161;-82
2022/02/28 05:12:26;;;;;;;0.88;0.80;;;17.70;41.80;;;;;;5039215;28;20632;-83
2022/02/28 05:14:52;;;;;;;2.08;1.00;;;17.70;41.80;;;;;;5073783;28;20153;-83
2022/02/28 05:17:18;;;;;;;1.23;0.90;;;17.70;42.00;;;;;;5055870;28;20611;-82
2022/02/28 05:19:44;;;;;;;1.40;0.90;;;17.70;41.90;;;;;;5039372;28;20166;-82
2022/02/28 05:22:10;;;;;;;1.50;0.90;;;17.60;41.90;;;;;;5055783;28;20196;-82
2022/02/28 05:24:36;;;;;;;1.35;0.82;;;17.70;41.80;;;;;;5055808;28;20674;-83
2022/02/28 05:27:02;;;;;;;3.45;1.00;;;17.70;41.60;;;;;;5055691;28;20164;-83
2022/02/28 05:29:28;;;;;;;1.42;0.80;;;17.80;40.90;;;;;;5055690;28;20252;-82
2022/02/28 05:31:55;;;;;;;1.55;1.00;;;17.90;40.80;;;;;;5073228;28;20235;-83
2022/02/28 05:34:21;;;;;;;1.48;0.80;;;17.90;40.50;;;;;;5039202;28;20208;-83
2022/02/28 05:36:47;;;;;;;2.13;1.00;;;17.90;40.60;;;;;;5055681;28;20177;-82
2022/02/28 05:39:13;;;;;;;1.33;0.80;;;17.90;40.70;;;;;;5038894;28;20211;-81
2022/02/28 05:41:39;;;;;;;1.55;0.90;;;17.90;40.50;;;;;;5055448;28;20186;-83
2022/02/28 05:44:05;;;;;;;2.15;0.80;;;18.00;40.50;;;;;;5055587;28;20158;-82
2022/02/28 05:46:30;;;;;;;1.17;0.90;;;18.00;40.50;;;;;;5054756;28;20158;-82
2022/02/28 05:48:56;;;;;;;1.08;0.80;;;18.00;40.40;;;;;;5055587;28;20158;-82
2022/02/28 05:51:25;;;;;;;0.85;0.77;;;18.00;40.10;;;;;;5055507;28;20165;-82
2022/02/28 05:53:53;;;;;;;0.80;0.75;;;18.00;40.00;;;;;;5005569;28;20250;-82
2022/02/28 05:56:20;;;;;;;0.93;0.82;;;18.10;39.80;;;;;;5021589;28;20185;-82
2022/02/28 05:58:47;;;;;;;1.02;0.80;;;18.10;39.60;;;;;;5022024;28;20192;-82
2022/02/28 06:01:15;;;;;;;1.13;0.80;;;18.10;39.80;;;;;;5021560;28;20209;-82
2022/02/28 06:03:42;;;;;;;0.85;0.70;;;18.20;39.50;;;;;;5004888;28;20181;-82
2022/02/28 06:06:09;;;;;;;0.80;0.70;;;18.10;39.50;;;;;;5004936;28;20177;-81
2022/02/28 06:08:37;;;;;;;0.80;0.80;;;18.10;39.30;;;;;;5038133;28;20185;-82
2022/02/28 06:11:04;;;;;;;0.90;0.80;;;18.10;39.20;;;;;;5005537;28;20196;-82
2022/02/28 06:13:30;;;;;;;0.98;0.82;;;18.20;39.10;;;;;;5037935;28;20181;-82
2022/02/28 06:15:55;;;;;;;1.73;0.98;;;18.10;39.20;;;;;;5055307;28;20160;-83
2022/02/28 06:18:21;;;;;;;1.35;0.90;;;18.20;39.20;;;;;;5073347;28;20192;-82
2022/02/28 06:20:47;;;;;;;1.60;0.90;;;18.20;39.10;;;;;;5038193;28;20215;-82
2022/02/28 06:23:15;;;;;;;1.08;0.88;;;18.10;39.10;;;;;;5072927;28;20202;-83
2022/02/28 06:25:42;;;;;;;1.50;0.80;;;18.20;38.90;;;;;;5055626;28;20188;-82
2022/02/28 06:28:08;;;;;;;0.82;0.82;;;18.20;38.80;;;;;;5022314;28;20624;-82
2022/02/28 06:30:34;;;;;;;1.77;0.90;;;18.20;38.70;;;;;;5038716;28;20160;-82
2022/02/28 06:33:01;;;;;;;0.88;0.80;;;18.20;38.50;;;;;;5051733;28;20225;-82
2022/02/28 06:35:27;;;;;;;1.27;0.90;;;18.20;38.30;;;;;;5050929;28;20591;-82
2022/02/28 06:37:53;;;;;;;2.17;0.98;;;18.30;38.10;;;;;;5051741;28;20193;-85
2022/02/28 06:40:19;;;;;;;1.67;0.80;;;18.30;38.20;;;;;;5052623;28;20158;-82
2022/02/28 06:42:45;;;;;;;0.90;0.77;;;18.30;38.10;;;;;;5052026;28;20201;-82
2022/02/28 06:45:11;;;;;;;0.95;0.60;;;18.30;38.50;;;;;;5035975;28;20215;-82
2022/02/28 06:47:36;;;;;;;0.73;0.70;;;18.30;38.10;;;;;;5053198;28;20147;-82
2022/02/28 06:50:03;;;;;;;0.80;0.68;;;18.30;38.10;;;;;;5053820;28;20478;-83
2022/02/28 06:52:29;;;;;;;1.90;0.75;;;18.30;38.20;;;;;;5056794;28;20154;-84
2022/02/28 06:54:55;;;;;;;2.03;0.90;;;18.30;37.80;;;;;;5041177;28;20174;-82
2022/02/28 06:57:23;;;;;;;0.95;0.88;;;18.30;37.90;;;;;;5027872;28;20178;-82
2022/02/28 06:59:48;;;;;;;0.90;0.70;;;18.30;37.80;;;;;;5027993;28;20542;-85
2022/02/28 07:02:24;;;;;;;1.23;0.80;;;18.40;37.60;;;;;;5044183;28;20695;-83
2022/02/28 07:04:50;;;;;;;0.63;0.63;;;18.40;37.50;;;;;;5045366;28;20146;-82
2022/02/28 07:07:20;;;;;;;1.67;0.80;;;18.50;37.30;;;;;;5060542;28;20246;-83
2022/02/28 07:09:48;;;;;;;1.02;0.82;;;18.50;37.30;;;;;;5042685;28;20236;-83
2022/02/28 07:12:17;;;;;;;1.00;0.98;;;18.40;37.30;;;;;;5042619;28;20182;-81
2022/02/28 07:14:45;;;;;;;1.42;0.75;;;18.50;37.30;;;;;;5026681;28;20178;-82
2022/02/28 07:17:11;;;;;;;1.25;0.88;;;18.50;37.30;;;;;;5043056;28;20174;-84
2022/02/28 07:19:38;;;;;;;0.63;0.63;;;18.50;37.20;;;;;;5043289;28;20686;-82
2022/02/28 07:22:08;;;;;;;1.52;0.93;;;18.50;37.30;;;;;;5044354;28;20222;-84
2022/02/28 07:24:36;;;;;;;0.80;0.80;;;18.50;37.30;;;;;;5043354;28;20640;-84
2022/02/28 07:27:03;;;;;;;1.20;0.80;;;18.60;37.30;;;;;;5044073;28;20174;-83
2022/02/28 07:29:33;;;;;;;0.80;0.80;;;18.50;36.90;;;;;;5043209;28;20552;-83
2022/02/28 07:31:59;;;;;;;1.33;0.90;;;18.60;36.90;;;;;;5044454;28;20692;-82
2022/02/28 07:34:24;;;;;;;1.15;0.90;;;18.60;36.90;;;;;;5045969;28;20172;-83
2022/02/28 07:36:50;;;;;;;1.73;0.90;;;18.60;36.60;;;;;;5065327;28;20153;-82
2022/02/28 07:39:16;;;;;;;1.25;1.00;;;18.70;36.70;;;;;;5049860;28;20197;-82
2022/02/28 07:41:43;;;;;;;0.70;0.70;;;18.70;36.80;;;;;;5049136;28;20649;-82
2022/02/28 07:44:14;;;;;;;1.20;0.90;;;18.70;36.70;;;;;;5065107;28;20166;-81
2022/02/28 07:46:40;;;;;;;1.23;0.85;;;18.60;36.80;;;;;;5050057;28;20177;-83
2022/02/28 07:49:08;;;;;;;1.08;0.85;;;18.60;36.80;;;;;;5048504;28;20209;-81
2022/02/28 07:51:42;;;;;;;0.80;0.80;;;18.50;36.80;;;;;;5027033;28;20197;-83
2022/02/28 07:54:10;;;;;;;1.52;0.93;;;18.50;36.90;;;;;;5024661;28;20189;-83
2022/02/28 07:56:41;;;;;;;0.75;0.75;;;18.60;36.90;;;;;;5041608;28;20197;-82
2022/02/28 07:59:08;;;;;;;0.70;0.70;;;18.60;36.70;;;;;;5041671;28;20184;-82
2022/02/28 08:01:39;;;;;;;1.08;0.80;;;18.60;36.70;;;;;;5027052;28;20248;-84
2022/02/28 08:04:18;;;;;;;1.02;0.80;;;18.60;37.30;;;;;;5044241;28;20524;-83
2022/02/28 08:06:46;;;;;;;0.65;0.65;;;18.60;36.70;;;;;;5011457;28;20208;-83
2022/02/28 08:09:16;;;;;;;1.00;0.90;;;18.50;36.80;;;;;;5042990;28;20636;-83
2022/02/28 08:11:44;;;;;;;1.00;0.85;;;18.50;36.70;;;;;;5030309;28;20185;-81
2022/02/28 08:14:11;;;;;;;1.02;0.90;;;18.50;36.60;;;;;;5026383;28;20250;-84
2022/02/28 08:16:38;;;;;;;1.10;0.93;;;18.60;36.60;;;;;;5024937;28;20186;-83
2022/02/28 08:19:05;;;;;;;1.90;0.93;;;18.60;36.70;;;;;;5058766;28;20177;-83
2022/02/28 08:21:32;;;;;;;1.20;0.90;;;18.50;36.80;;;;;;5057750;28;20202;-81
2022/02/28 08:24:00;;;;;;;1.10;0.82;;;18.50;36.90;;;;;;5024919;28;20185;-82
2022/02/28 08:26:30;;;;;;;2.65;1.00;;;18.60;36.60;;;;;;4991090;28;20575;-82
2022/02/28 08:29:00;;;;;;;1.02;0.70;;;18.60;36.50;;;;;;5024161;28;20178;-83
2022/02/28 08:31:25;;;;;;;1.33;0.80;;;18.60;36.40;;;;;;5054792;28;20317;-82
2022/02/28 08:33:52;;;;;;;1.00;0.70;;;18.60;36.50;;;;;;5038069;28;20288;-82
2022/02/28 08:36:18;;;;;;;1.17;0.88;;;18.60;36.60;;;;;;5020615;28;20182;-82
2022/02/28 08:38:44;;;;;;;1.88;0.80;;;18.60;36.50;;;;;;5037967;28;20163;-83
2022/02/28 08:41:11;;;;;;;1.10;0.90;;;18.60;36.50;;;;;;5038290;28;20278;-81
2022/02/28 08:43:37;;;;;;;1.13;0.70;;;18.60;36.50;;;;;;5039342;28;20151;-84
2022/02/28 08:46:04;;;;;;;1.75;0.90;;;18.60;36.60;;;;;;5024121;28;20166;-84
2022/02/28 08:48:30;;;;;;;2.33;0.88;;;18.60;36.60;;;;;;5039625;28;20170;-83
2022/02/28 08:50:56;;;;;;;0.90;0.80;;;18.70;36.50;;;;;;5040532;28;20163;-83
2022/02/28 08:53:21;;;;;;;1.00;0.90;;;18.70;36.30;;;;;;5023104;28;20164;-84
2022/02/28 08:55:47;;;;;;;2.13;0.90;;;18.80;36.20;;;;;;5005167;28;20163;-83
2022/02/28 08:58:13;;;;;;;0.80;0.80;;;18.80;36.20;;;;;;5036735;28;20246;-83
2022/02/28 09:00:44;;;;;;;1.15;0.90;;;18.80;36.90;;;;;;5038773;28;20644;-84
2022/02/28 09:03:09;;;;;;;1.83;1.20;;;18.90;36.30;;;;;;5055409;28;20162;-83
2022/02/28 09:05:36;;;;;;;1.52;1.08;;;19.00;36.20;;;;;;5038830;28;20162;-81
2022/02/28 09:08:05;;;;;;;1.33;0.90;;;19.00;36.00;;;;;;5056193;28;20624;-81
2022/02/28 09:10:31;;;;;;;1.08;0.93;;;19.00;35.80;;;;;;5056700;28;20180;-81
2022/02/28 09:12:59;;;;;;;1.77;0.70;;;19.00;36.40;;;;;;5039210;28;20218;-82
2022/02/28 09:15:24;;;;;;;2.40;1.10;;;19.00;36.00;;;;;;5023935;28;20166;-81
2022/02/28 09:17:53;;;;;;;1.40;1.00;;;19.00;35.70;;;;;;5056826;28;20162;-81
2022/02/28 09:20:39;;;;;;;1.00;0.90;;;19.00;35.70;;;;;;5056600;28;20154;-82
2022/02/28 09:23:24;;;;;;;1.70;0.95;;;19.00;35.70;;;;;;5058452;28;20270;-81
2022/02/28 09:26:47;;;;;;;1.30;1.15;;;19.00;35.60;;;;;;5023848;28;20188;-81
2022/02/28 09:29:35;;;;;;;1.33;1.05;;;19.00;35.60;;;;;;4992274;28;20269;-82
2022/02/28 09:32:01;;;;;;;2.97;1.00;;;19.10;35.60;;;;;;5022174;28;20599;-80
2022/02/28 09:34:26;;;;;;;0.80;0.80;;;19.00;35.70;;;;;;5039558;28;20281;-81
2022/02/28 09:36:52;;;;;;;1.13;0.88;;;19.00;35.80;;;;;;5056283;28;20158;-81
2022/02/28 09:39:18;;;;;;;1.05;0.80;;;19.00;35.70;;;;;;5037705;28;20583;-82
2022/02/28 09:41:44;;;;;;;1.88;1.10;;;19.00;35.60;;;;;;5018988;28;20244;-82
2022/02/28 09:44:13;;;;;;;2.97;1.00;;;19.00;35.60;;;;;;5019384;28;20181;-82
2022/02/28 09:46:39;;;;;;;2.08;0.95;;;19.00;35.70;;;;;;5052084;28;20158;-82
2022/02/28 09:49:14;;;;;;;6.03;0.93;;;19.00;35.90;;;;;;5052733;28;20186;-82
2022/02/28 09:51:48;;;;;;;1.75;1.02;;;18.90;36.00;;;;;;5036318;28;20201;-83
2022/02/28 09:54:13;;;;;;;1.75;1.02;;;19.00;35.70;;;;;;5018790;28;20173;-82
2022/02/28 09:56:39;;;;;;;2.35;1.10;;;19.10;35.60;;;;;;5052421;28;20169;-82
2022/02/28 09:59:05;;;;;;;2.28;0.98;;;19.10;35.40;;;;;;5052455;28;20638;-82
2022/02/28 10:01:31;;;;;;;1.58;1.00;;;19.10;35.50;;;;;;5068353;28;20223;-81
2022/02/28 10:04:01;;;;;;;1.67;1.20;;;19.10;35.60;;;;;;5055891;28;20197;-83
2022/02/28 10:06:27;;;;;;;2.75;1.10;;;19.00;35.60;;;;;;5020720;28;20192;-82
2022/02/28 10:08:54;;;;;;;1.13;1.00;;;19.10;35.70;;;;;;5020550;28;20644;-83
2022/02/28 10:11:38;;;;;;;2.55;1.10;;;19.10;35.80;;;;;;5073193;28;20180;-83
2022/02/28 10:14:09;;;;;;;1.90;1.10;;;19.00;35.70;;;;;;5056441;28;20180;-82
2022/02/28 10:16:38;;;;;;;4.57;1.02;;;19.00;35.70;;;;;;5055601;28;20208;-83
2022/02/28 10:19:06;;;;;;;4.13;1.00;;;19.10;35.70;;;;;;5055430;28;20260;-82
2022/02/28 10:21:39;;;;;;;3.08;0.80;;;19.10;35.60;;;;;;5039518;28;20274;-83
2022/02/28 10:24:07;;;;;;;3.28;1.00;;;19.20;35.50;;;;;;5056211;28;20153;-83
2022/02/28 10:26:41;;;;;;;1.33;0.90;;;19.20;35.40;;;;;;5055519;28;20177;-82
2022/02/28 10:29:08;;;;;;;3.17;1.15;;;19.20;35.50;;;;;;5055106;28;20303;-82
2022/02/28 10:31:35;;;;;;;3.28;1.08;;;19.10;35.40;;;;;;5078706;28;20216;-83
2022/02/28 10:34:11;;;;;;;1.70;0.98;;;19.20;35.30;;;;;;5044827;28;20185;-83
2022/02/28 10:36:37;;;;;;;3.00;0.95;;;19.20;35.40;;;;;;5080326;28;20249;-83
2022/02/28 10:39:07;;;;;;;5.05;1.20;;;19.10;35.50;;;;;;5080188;28;20172;-84
2022/02/28 10:41:36;;;;;;;1.15;0.88;;;19.20;35.50;;;;;;5100278;28;20192;-83
2022/02/28 10:44:01;;;;;;;2.03;0.93;;;19.10;35.50;;;;;;5088774;28;20219;-83
2022/02/28 10:46:29;;;;;;;3.53;1.13;;;19.20;35.20;;;;;;5060481;28;20177;-82
2022/02/28 10:49:02;;;;;;;2.88;1.00;;;19.30;35.20;;;;;;5082357;28;20145;-82
2022/02/28 10:51:29;;;;;;;3.00;1.08;;;19.30;35.10;;;;;;5064762;28;20176;-82
2022/02/28 10:54:10;;;;;;;2.75;1.20;;;19.30;35.00;;;;;;5097429;28;20153;-83
2022/02/28 10:56:48;;;;;;;1.75;0.93;;;19.30;35.00;;;;;;5062470;28;20577;-82
2022/02/28 10:59:14;;;;;;;1.90;0.95;;;19.40;35.00;;;;;;5098077;28;20156;-83
2022/02/28 11:01:41;;;;;;;3.80;1.27;;;19.40;34.90;;;;;;5065099;28;20726;-82
2022/02/28 11:04:09;;;;;;;2.25;1.20;;;19.50;34.80;;;;;;5099365;28;20164;-82
2022/02/28 11:06:39;;;;;;;1.55;1.10;;;19.50;34.70;;;;;;5066285;28;20169;-83
2022/02/28 11:09:11;;;;;;;2.53;1.15;;;19.50;34.70;;;;;;5066016;28;20260;-81
2022/02/28 11:11:40;;;;;;;5.03;1.38;;;19.40;34.70;;;;;;5066139;28;20200;-82
2022/02/28 11:14:08;;;;;;;2.75;0.90;;;19.40;34.70;;;;;;5032498;28;20661;-82
2022/02/28 11:16:37;;;;;;;1.33;0.90;;;19.40;34.70;;;;;;5062474;28;20181;-81
2022/02/28 11:19:05;;;;;;;3.38;1.27;;;19.40;34.90;;;;;;5061916;28;20180;-82
2022/02/28 11:21:33;;;;;;;2.38;1.20;;;19.30;34.80;;;;;;5057726;28;20682;-80
2022/02/28 11:23:59;;;;;;;2.95;1.10;;;19.30;34.90;;;;;;5077370;28;20150;-82
2022/02/28 11:26:24;;;;;;;1.73;0.90;;;19.40;35.00;;;;;;5043692;28;20167;-82
2022/02/28 11:28:51;;;;;;;3.30;1.20;;;19.40;34.80;;;;;;5059289;28;20234;-82
2022/02/28 11:31:17;;;;;;;3.17;0.88;;;19.40;34.90;;;;;;5056716;28;20307;-82
2022/02/28 11:34:03;;;;;;;3.08;1.25;;;19.40;34.80;;;;;;5055377;28;20161;-82
2022/02/28 11:36:44;;;;;;;1.38;1.10;;;19.50;34.60;;;;;;5055193;28;20162;-82
2022/02/28 11:39:12;;;;;;;2.10;1.23;;;19.50;34.70;;;;;;5005565;28;20200;-82
2022/02/28 11:41:38;;;;;;;3.95;1.20;;;19.40;34.70;;;;;;5055837;28;20197;-82
2022/02/28 11:44:03;;;;;;;2.05;0.98;;;19.30;34.80;;;;;;5038778;28;20169;-82
2022/02/28 11:46:36;;;;;;;1.30;1.20;;;19.40;34.80;;;;;;5056754;28;20176;-82
2022/02/28 11:49:02;;;;;;;2.00;0.85;;;19.40;34.70;;;;;;5042049;28;20186;-81
2022/02/28 11:51:43;;;;;;;1.67;1.00;;;19.40;34.70;;;;;;5058072;28;20170;-82
2022/02/28 11:54:28;;;;;;;0.93;0.80;;;19.40;34.80;;;;;;5042373;28;20643;-82
2022/02/28 11:56:55;;;;;;;2.03;1.10;;;19.50;34.60;;;;;;5025357;28;20617;-82
2022/02/28 11:59:30;;;;;;;1.70;1.10;;;19.50;34.60;;;;;;5060692;28;20151;-84
2022/02/28 12:02:01;;;;;;;1.60;0.98;;;19.50;34.50;;;;;;5057163;28;20280;-84
2022/02/28 12:04:40;;;;;;;2.20;1.10;;;19.40;34.50;;;;;;5026700;28;20178;-83
2022/02/28 12:07:10;;;;;;;1.95;1.00;;;19.50;35.20;;;;;;5061378;28;20247;-81
2022/02/28 12:09:37;;;;;;;2.47;1.10;;;19.50;34.50;;;;;;5043749;28;20642;-83
2022/02/28 12:12:33;;;;;;;2.70;1.10;;;19.50;34.50;;;;;;5059662;28;20158;-84
2022/02/28 12:15:17;;;;;;;2.33;1.20;;;19.50;34.40;;;;;;5059663;28;20249;-82
2022/02/28 12:17:52;;;;;;;1.30;0.98;;;19.50;34.50;;;;;;5040064;28;20674;-82
2022/02/28 12:20:28;;;;;;;4.75;1.30;;;19.40;34.40;;;;;;5042988;28;20195;-83
2022/02/28 12:23:13;;;;;;;1.25;0.82;;;19.40;34.50;;;;;;5040406;28;20224;-83
2022/02/28 12:25:59;;;;;;;2.40;1.20;;;19.40;34.40;;;;;;5056936;28;20239;-82
2022/02/28 12:28:40;;;;;;;1.60;1.40;;;19.50;34.30;;;;;;5057420;28;20605;-82
2022/02/28 12:31:09;;;;;;;1.52;1.15;;;19.40;34.30;;;;;;5059962;28;20275;-83
2022/02/28 12:33:55;;;;;;;1.50;0.98;;;19.40;34.40;;;;;;5042405;28;20735;-82
2022/02/28 12:36:22;;;;;;;1.33;1.13;;;19.50;34.30;;;;;;5044989;28;20165;-82
2022/02/28 12:38:51;;;;;;;2.40;1.10;;;19.50;34.30;;;;;;5058309;28;20181;-83
2022/02/28 12:41:23;;;;;;;1.52;0.90;;;19.50;34.20;;;;;;5040860;28;20201;-83
2022/02/28 12:43:50;;;;;;;1.75;1.33;;;19.40;34.20;;;;;;5057924;28;20181;-83
2022/02/28 12:46:19;;;;;;;1.90;1.40;;;19.40;34.10;;;;;;5076481;28;20162;-82
2022/02/28 12:48:47;;;;;;;1.45;1.30;;;19.50;34.10;;;;;;5042111;28;20165;-82
2022/02/28 12:51:20;;;;;;;1.90;1.15;;;19.40;34.20;;;;;;5058330;28;20153;-82
2022/02/28 12:53:46;;;;;;;2.20;1.00;;;19.40;34.20;;;;;;5042615;28;20192;-83